createdAt,value
2018-12-16T00:01:33.943Z,18.53
2018-12-16T00:04:01.498Z,18.63
2018-12-16T00:06:37.699Z,18.63
2018-12-16T00:09:05.642Z,18.61
2018-12-16T00:11:33.105Z,18.61
2018-12-16T00:14:00.610Z,18.43
2018-12-16T00:16:28.031Z,18.58
2018-12-16T00:18:55.476Z,18.59
2018-12-16T00:21:23.007Z,18.57
2018-12-16T00:23:50.419Z,18.56
2018-12-16T00:26:17.833Z,18.58
2018-12-16T00:28:45.242Z,18.59
2018-12-16T00:31:12.675Z,18.61
2018-12-16T00:33:40.120Z,18.62
2018-12-16T00:36:07.540Z,18.63
2018-12-16T00:38:35.026Z,18.63
2018-12-16T00:41:02.427Z,18.61
2018-12-16T00:43:29.854Z,18.65
2018-12-16T00:45:57.380Z,18.66
2018-12-16T00:48:25.502Z,18.67
2018-12-16T00:51:00.934Z,18.67
2018-12-16T00:53:28.326Z,18.66
2018-12-16T00:55:55.730Z,18.67
2018-12-16T00:58:23.174Z,18.66
2018-12-16T01:00:50.566Z,18.66
2018-12-16T01:03:18.011Z,18.66
2018-12-16T01:05:45.454Z,18.65
2018-12-16T01:08:12.939Z,18.65
2018-12-16T01:10:40.467Z,18.63
2018-12-16T01:13:07.922Z,18.62
2018-12-16T01:15:35.366Z,18.63
2018-12-16T01:18:02.869Z,18.61
2018-12-16T01:20:30.339Z,18.59
2018-12-16T01:22:57.771Z,18.58
2018-12-16T01:25:25.268Z,18.56
2018-12-16T01:27:52.772Z,18.55
2018-12-16T01:30:20.446Z,18.55
2018-12-16T01:32:57.051Z,18.51
2018-12-16T01:35:24.459Z,18.52
2018-12-16T01:37:51.884Z,18.53
2018-12-16T01:40:19.344Z,18.54
2018-12-16T01:42:46.770Z,18.56
2018-12-16T01:45:14.226Z,18.57
2018-12-16T01:47:41.641Z,18.57
2018-12-16T01:50:09.081Z,18.55
2018-12-16T01:52:36.487Z,18.56
2018-12-16T01:55:03.936Z,18.57
2018-12-16T01:57:31.362Z,18.56
2018-12-16T01:59:58.797Z,18.59
2018-12-16T02:02:26.210Z,18.56
2018-12-16T02:04:53.614Z,18.57
2018-12-16T02:07:21.026Z,18.59
2018-12-16T02:09:48.441Z,18.59
2018-12-16T02:12:15.855Z,18.60
2018-12-16T02:14:53.490Z,18.60
2018-12-16T02:17:20.879Z,18.59
2018-12-16T02:19:48.333Z,18.57
2018-12-16T02:22:15.755Z,18.59
2018-12-16T02:24:43.196Z,18.57
2018-12-16T02:27:10.581Z,18.56
2018-12-16T02:29:38.047Z,18.55
2018-12-16T02:32:11.830Z,18.53
2018-12-16T02:34:39.242Z,18.54
2018-12-16T02:37:06.683Z,18.53
2018-12-16T02:39:34.118Z,18.54
2018-12-16T02:42:01.515Z,18.53
2018-12-16T02:44:28.938Z,18.52
2018-12-16T02:46:56.416Z,18.51
2018-12-16T02:49:23.843Z,18.52
2018-12-16T02:52:07.059Z,18.49
2018-12-16T02:54:34.546Z,18.51
2018-12-16T02:57:01.959Z,18.53
2018-12-16T02:59:30.454Z,18.55
2018-12-16T03:01:57.854Z,18.55
2018-12-16T03:04:25.269Z,18.55
2018-12-16T03:06:52.677Z,18.53
2018-12-16T03:09:20.116Z,18.55
2018-12-16T03:11:47.577Z,18.57
2018-12-16T03:14:15.011Z,18.59
2018-12-16T03:16:42.398Z,18.57
2018-12-16T03:19:09.819Z,18.59
2018-12-16T03:21:37.310Z,18.55
2018-12-16T03:24:04.755Z,18.57
2018-12-16T03:26:35.806Z,18.44
2018-12-16T03:29:07.492Z,18.58
2018-12-16T03:31:36.902Z,18.58
2018-12-16T03:34:04.308Z,18.59
2018-12-16T03:36:31.727Z,18.57
2018-12-16T03:38:59.143Z,18.58
2018-12-16T03:41:26.574Z,18.58
2018-12-16T03:43:54.143Z,18.56
2018-12-16T03:46:21.615Z,18.57
2018-12-16T03:48:49.146Z,18.57
2018-12-16T03:51:16.594Z,18.56
2018-12-16T03:53:44.831Z,18.56
2018-12-16T03:58:51.514Z,18.55
2018-12-16T04:01:18.943Z,18.54
2018-12-16T04:03:46.703Z,18.53
2018-12-16T04:06:16.849Z,18.35
2018-12-16T04:08:51.798Z,18.51
2018-12-16T04:11:19.259Z,18.53
2018-12-16T04:13:46.722Z,18.55
2018-12-16T04:16:14.182Z,18.56
2018-12-16T04:18:41.644Z,18.57
2018-12-16T04:21:09.047Z,18.61
2018-12-16T04:23:36.478Z,18.60
2018-12-16T04:26:03.919Z,18.61
2018-12-16T04:28:31.403Z,18.59
2018-12-16T04:30:59.073Z,18.61
2018-12-16T04:33:26.514Z,18.61
2018-12-16T04:35:53.913Z,18.63
2018-12-16T04:38:21.310Z,18.62
2018-12-16T04:40:48.804Z,18.62
2018-12-16T04:43:16.352Z,18.60
2018-12-16T04:45:43.784Z,18.59
2018-12-16T04:48:11.701Z,18.58
2018-12-16T04:50:49.114Z,18.58
2018-12-16T04:53:16.770Z,18.57
2018-12-16T04:55:44.181Z,18.55
2018-12-16T04:58:11.574Z,18.57
2018-12-16T05:00:38.986Z,18.57
2018-12-16T05:03:06.411Z,18.57
2018-12-16T05:05:33.954Z,18.58
2018-12-16T05:08:01.543Z,18.57
2018-12-16T05:10:29.665Z,18.57
2018-12-16T05:12:57.070Z,18.58
2018-12-16T05:15:24.554Z,18.58
2018-12-16T05:17:52.030Z,18.57
2018-12-16T05:20:19.471Z,18.56
2018-12-16T05:22:47.023Z,18.56
2018-12-16T05:25:14.439Z,18.56
2018-12-16T05:27:41.849Z,18.55
2018-12-16T05:30:09.399Z,18.55
2018-12-16T05:32:48.835Z,18.57
2018-12-16T05:35:16.247Z,18.59
2018-12-16T05:37:43.642Z,18.60
2018-12-16T05:42:44.913Z,18.61
2018-12-16T05:45:12.398Z,18.62
2018-12-16T05:47:39.862Z,18.62
2018-12-16T05:50:07.574Z,18.57
2018-12-16T05:52:35.013Z,18.62
2018-12-16T05:55:02.431Z,18.61
2018-12-16T05:57:29.890Z,18.62
2018-12-16T05:59:57.290Z,18.62
2018-12-16T06:02:24.780Z,18.60
2018-12-16T06:04:52.231Z,18.61
2018-12-16T06:07:19.644Z,18.59
2018-12-16T06:09:47.063Z,18.58
2018-12-16T06:14:55.147Z,18.58
2018-12-16T06:17:22.570Z,18.56
2018-12-16T06:19:49.980Z,18.55
2018-12-16T06:22:17.366Z,18.57
2018-12-16T06:24:44.786Z,18.56
2018-12-16T06:27:12.205Z,18.55
2018-12-16T06:29:40.655Z,18.54
2018-12-16T06:32:08.054Z,18.54
2018-12-16T06:34:35.500Z,18.51
2018-12-16T06:37:02.979Z,18.48
2018-12-16T06:39:31.226Z,18.49
2018-12-16T06:41:58.643Z,18.49
2018-12-16T06:44:26.050Z,18.51
2018-12-16T06:46:53.760Z,18.49
2018-12-16T06:49:21.189Z,18.48
2018-12-16T06:54:23.618Z,18.51
2018-12-16T06:56:51.002Z,18.54
2018-12-16T06:59:18.382Z,18.56
2018-12-16T07:01:45.781Z,18.58
2018-12-16T07:04:13.420Z,18.59
2018-12-16T07:06:40.814Z,18.60
2018-12-16T07:09:08.205Z,18.59
2018-12-16T07:11:35.640Z,18.61
2018-12-16T07:14:03.082Z,18.63
2018-12-16T07:16:30.529Z,18.59
2018-12-16T07:18:57.975Z,18.61
2018-12-16T07:21:25.454Z,18.62
2018-12-16T07:23:52.930Z,18.59
2018-12-16T07:26:20.358Z,18.60
2018-12-16T07:28:47.824Z,18.61
2018-12-16T07:31:15.311Z,18.61
2018-12-16T07:33:44.532Z,18.61
2018-12-16T07:36:12.714Z,18.59
2018-12-16T07:38:45.836Z,18.58
2018-12-16T07:41:13.213Z,18.59
2018-12-16T07:43:40.613Z,18.55
2018-12-16T07:46:08.007Z,18.57
2018-12-16T07:48:35.461Z,18.56
2018-12-16T07:51:02.855Z,18.55
2018-12-16T07:53:30.261Z,18.55
2018-12-16T07:55:57.634Z,18.54
2018-12-16T07:58:25.067Z,18.54
2018-12-16T08:00:52.877Z,18.49
2018-12-16T08:03:20.353Z,18.47
2018-12-16T08:05:47.870Z,18.50
2018-12-16T08:08:15.325Z,18.53
2018-12-16T08:10:42.739Z,18.53
2018-12-16T08:13:10.233Z,18.53
2018-12-16T08:15:37.695Z,18.53
2018-12-16T08:18:05.199Z,18.55
2018-12-16T08:20:33.490Z,18.56
2018-12-16T08:23:06.781Z,18.58
2018-12-16T08:25:34.212Z,18.59
2018-12-16T08:28:01.674Z,18.60
2018-12-16T08:30:29.173Z,18.62
2018-12-16T08:32:56.557Z,18.63
2018-12-16T08:35:23.967Z,18.25
2018-12-16T08:37:51.367Z,18.57
2018-12-16T08:40:18.834Z,18.66
2018-12-16T08:42:46.271Z,18.65
2018-12-16T08:45:13.672Z,18.65
2018-12-16T08:47:41.068Z,18.63
2018-12-16T08:50:08.466Z,18.63
2018-12-16T08:52:35.899Z,18.64
2018-12-16T08:55:03.293Z,18.63
2018-12-16T08:57:30.670Z,18.64
2018-12-16T08:59:58.099Z,18.63
2018-12-16T09:02:27.591Z,18.63
2018-12-16T09:05:02.999Z,18.62
2018-12-16T09:07:37.063Z,18.63
2018-12-16T09:09:59.886Z,18.63
2018-12-16T09:12:27.290Z,18.61
2018-12-16T09:14:54.749Z,18.61
2018-12-16T09:17:22.735Z,18.61
2018-12-16T09:19:51.150Z,18.61
2018-12-16T09:22:18.974Z,18.63
2018-12-16T09:24:46.474Z,18.62
2018-12-16T09:27:13.894Z,18.61
2018-12-16T09:29:41.390Z,18.60
2018-12-16T09:32:09.685Z,18.60
2018-12-16T09:34:37.190Z,18.59
2018-12-16T09:37:04.670Z,18.58
2018-12-16T09:39:32.135Z,18.57
2018-12-16T09:41:59.558Z,18.57
2018-12-16T09:44:29.392Z,18.58
2018-12-16T09:47:03.435Z,18.60
2018-12-16T09:49:30.834Z,18.60
2018-12-16T09:51:58.352Z,18.63
2018-12-16T09:54:25.784Z,18.64
2018-12-16T09:56:53.260Z,18.67
2018-12-16T09:59:20.670Z,18.66
2018-12-16T10:01:48.061Z,18.67
2018-12-16T10:04:15.502Z,18.66
2018-12-16T10:06:42.905Z,18.66
2018-12-16T10:09:10.341Z,18.66
2018-12-16T10:11:37.805Z,18.67
2018-12-16T10:14:08.884Z,18.69
2018-12-16T10:16:36.402Z,18.72
2018-12-16T10:19:04.230Z,18.75
2018-12-16T10:21:31.750Z,18.75
2018-12-16T10:23:59.347Z,18.71
2018-12-16T10:26:37.793Z,18.69
2018-12-16T10:29:05.294Z,18.64
2018-12-16T10:31:32.763Z,18.63
2018-12-16T10:34:00.390Z,18.64
2018-12-16T10:36:27.842Z,18.62
2018-12-16T10:38:55.288Z,18.58
2018-12-16T10:41:22.763Z,18.59
2018-12-16T10:43:50.222Z,18.57
2018-12-16T10:46:17.670Z,18.58
2018-12-16T10:48:45.186Z,18.57
2018-12-16T10:51:12.635Z,18.52
2018-12-16T10:53:40.193Z,18.52
2018-12-16T10:56:07.643Z,18.50
2018-12-16T10:58:35.186Z,18.50
2018-12-16T11:01:08.198Z,18.51
2018-12-16T11:06:22.871Z,18.55
2018-12-16T11:08:50.958Z,18.56
2018-12-16T11:11:18.431Z,18.58
2018-12-16T11:13:45.885Z,18.61
2018-12-16T11:16:13.569Z,18.55
2018-12-16T11:18:41.054Z,18.53
2018-12-16T11:21:08.545Z,18.56
2018-12-16T11:23:36.087Z,18.52
2018-12-16T11:26:03.567Z,18.59
2018-12-16T11:28:31.067Z,18.64
2018-12-16T11:30:58.599Z,18.64
2018-12-16T11:33:26.175Z,18.65
2018-12-16T11:35:55.002Z,18.62
2018-12-16T11:38:22.502Z,18.65
2018-12-16T11:40:50.182Z,18.66
2018-12-16T11:43:17.673Z,18.66
2018-12-16T11:45:45.259Z,18.67
2018-12-16T11:48:12.991Z,18.69
2018-12-16T11:50:40.586Z,18.69
2018-12-16T11:53:08.232Z,18.70
2018-12-16T11:55:35.743Z,18.70
2018-12-16T11:58:03.247Z,18.70
2018-12-16T12:00:31.003Z,18.67
2018-12-16T12:02:58.500Z,18.66
2018-12-16T12:05:25.991Z,18.65
2018-12-16T12:07:53.473Z,18.63
2018-12-16T12:10:20.988Z,18.61
2018-12-16T12:12:49.770Z,18.61
2018-12-16T12:15:17.518Z,18.59
2018-12-16T12:17:46.065Z,18.59
2018-12-16T12:20:13.547Z,18.57
2018-12-16T12:22:41.208Z,18.58
2018-12-16T12:25:08.999Z,18.59
2018-12-16T12:27:36.560Z,18.59
2018-12-16T12:30:04.498Z,18.60
2018-12-16T12:32:31.972Z,18.61
2018-12-16T12:34:59.477Z,18.62
2018-12-16T12:37:30.857Z,18.62
2018-12-16T12:39:58.473Z,18.63
2018-12-16T12:42:26.079Z,18.66
2018-12-16T12:44:53.749Z,18.66
2018-12-16T12:47:21.230Z,18.66
2018-12-16T12:49:48.687Z,18.67
2018-12-16T12:52:16.580Z,18.61
2018-12-16T12:54:44.191Z,18.66
2018-12-16T12:57:11.824Z,18.65
2018-12-16T12:59:39.439Z,18.65
2018-12-16T13:02:07.068Z,18.64
2018-12-16T13:04:34.547Z,18.64
2018-12-16T13:07:02.184Z,18.63
2018-12-16T13:09:29.747Z,18.64
2018-12-16T13:12:00.121Z,18.63
2018-12-16T13:14:27.733Z,18.63
2018-12-16T13:16:55.604Z,18.63
2018-12-16T13:19:23.128Z,18.63
2018-12-16T13:21:50.804Z,18.64
2018-12-16T13:24:18.306Z,18.65
2018-12-16T13:26:53.083Z,18.71
2018-12-16T13:29:20.675Z,18.74
2018-12-16T13:31:48.710Z,18.76
2018-12-16T13:34:16.286Z,18.76
2018-12-16T13:36:43.739Z,18.80
2018-12-16T13:39:11.320Z,18.81
2018-12-16T13:41:38.977Z,18.80
2018-12-16T13:44:06.447Z,18.76
2018-12-16T13:46:33.932Z,18.72
2018-12-16T13:49:01.390Z,18.74
2018-12-16T13:51:28.992Z,18.72
2018-12-16T13:53:56.473Z,18.71
2018-12-16T13:56:24.040Z,18.73
2018-12-16T13:58:51.533Z,18.54
2018-12-16T14:01:19.097Z,18.72
2018-12-16T14:03:47.379Z,18.72
2018-12-16T14:06:14.851Z,18.71
2018-12-16T14:08:42.478Z,18.72
2018-12-16T14:11:10.086Z,18.73
2018-12-16T14:13:37.692Z,18.71
2018-12-16T14:16:05.324Z,18.62
2018-12-16T14:18:33.016Z,18.50
2018-12-16T14:21:02.561Z,18.69
2018-12-16T14:23:30.636Z,18.67
2018-12-16T14:25:58.307Z,18.74
2018-12-16T14:28:27.413Z,18.77
2018-12-16T14:30:56.708Z,18.77
2018-12-16T14:33:25.868Z,18.77
2018-12-16T14:35:53.857Z,18.78
2018-12-16T14:38:21.831Z,18.79
2018-12-16T14:40:49.408Z,18.78
2018-12-16T14:43:16.938Z,18.74
2018-12-16T14:45:44.446Z,18.74
2018-12-16T14:48:12.207Z,18.74
2018-12-16T14:50:41.903Z,18.47
2018-12-16T14:53:09.526Z,18.47
2018-12-16T14:55:37.310Z,18.55
2018-12-16T14:58:04.945Z,18.23
2018-12-16T15:00:32.567Z,18.16
2018-12-16T15:03:00.089Z,18.12
2018-12-16T15:05:27.551Z,18.11
2018-12-16T15:07:55.153Z,18.12
2018-12-16T15:10:22.757Z,18.15
2018-12-16T15:12:50.499Z,18.18
2018-12-16T15:15:19.193Z,18.20
2018-12-16T15:17:48.876Z,18.20
2018-12-16T15:20:16.359Z,18.16
2018-12-16T15:22:44.073Z,18.15
2018-12-16T15:25:13.346Z,18.20
2018-12-16T15:27:43.615Z,18.22
2018-12-16T15:30:11.268Z,18.23
2018-12-16T15:32:38.780Z,18.24
2018-12-16T15:35:06.492Z,18.23
2018-12-16T15:37:34.396Z,18.21
2018-12-16T15:40:01.986Z,18.20
2018-12-16T15:42:29.567Z,18.20
2018-12-16T15:44:57.179Z,18.19
2018-12-16T15:47:26.232Z,18.17
2018-12-16T15:49:54.058Z,18.17
2018-12-16T15:52:21.665Z,18.16
2018-12-16T15:54:49.185Z,18.16
2018-12-16T15:57:18.910Z,18.14
2018-12-16T15:59:46.441Z,18.14
2018-12-16T16:02:13.911Z,18.12
2018-12-16T16:04:41.546Z,18.12
2018-12-16T16:07:09.079Z,18.11
2018-12-16T16:09:37.726Z,18.10
2018-12-16T16:12:12.942Z,18.08
2018-12-16T16:14:40.459Z,18.08
2018-12-16T16:17:07.910Z,18.08
2018-12-16T16:22:09.682Z,18.07
2018-12-16T16:24:38.440Z,18.08
2018-12-16T16:27:07.006Z,18.10
2018-12-16T16:29:34.685Z,18.13
2018-12-16T16:32:02.260Z,18.15
2018-12-16T16:34:31.915Z,18.15
2018-12-16T16:36:59.535Z,18.18
2018-12-16T16:39:27.134Z,18.19
2018-12-16T16:41:55.459Z,18.20
2018-12-16T16:44:23.491Z,18.20
2018-12-16T16:46:51.094Z,18.18
2018-12-16T16:49:18.677Z,18.19
2018-12-16T16:51:47.274Z,18.18
2018-12-16T16:54:14.809Z,18.17
2018-12-16T16:56:42.271Z,18.16
2018-12-16T16:59:10.894Z,18.13
2018-12-16T17:01:38.492Z,18.13
2018-12-16T17:04:05.979Z,18.12
2018-12-16T17:06:34.016Z,18.12
2018-12-16T17:09:01.844Z,18.10
2018-12-16T17:11:29.702Z,18.12
2018-12-16T17:13:58.530Z,18.10
2018-12-16T17:16:26.163Z,18.08
2018-12-16T17:18:54.027Z,18.08
2018-12-16T17:21:21.589Z,18.08
2018-12-16T17:23:49.370Z,18.08
2018-12-16T17:26:16.827Z,18.04
2018-12-16T17:28:46.980Z,18.05
2018-12-16T17:31:16.508Z,18.06
2018-12-16T17:33:44.082Z,18.04
2018-12-16T17:36:11.938Z,17.95
2018-12-16T17:38:40.054Z,18.01
2018-12-16T17:41:09.580Z,18.02
2018-12-16T17:43:38.491Z,18.04
2018-12-16T17:46:06.504Z,18.05
2018-12-16T17:48:35.434Z,18.05
2018-12-16T17:51:02.966Z,18.11
2018-12-16T17:53:30.987Z,18.14
2018-12-16T17:55:59.045Z,18.20
2018-12-16T17:58:26.919Z,18.27
2018-12-16T18:00:56.416Z,18.27
2018-12-16T18:03:24.293Z,18.25
2018-12-16T18:05:52.960Z,18.21
2018-12-16T18:08:20.977Z,18.20
2018-12-16T18:10:48.914Z,18.18
2018-12-16T18:13:16.790Z,18.07
2018-12-16T18:15:45.570Z,18.16
2018-12-16T18:18:13.676Z,18.17
2018-12-16T18:20:42.351Z,18.15
2018-12-16T18:23:10.295Z,18.19
2018-12-16T18:25:38.181Z,18.06
2018-12-16T18:28:05.618Z,18.18
2018-12-16T18:30:35.226Z,18.20
2018-12-16T18:33:02.979Z,18.17
2018-12-16T18:35:30.758Z,18.16
2018-12-16T18:37:58.439Z,18.14
2018-12-16T18:40:26.128Z,18.14
2018-12-16T18:42:53.657Z,18.15
2018-12-16T18:45:21.151Z,18.12
2018-12-16T18:47:48.781Z,18.10
2018-12-16T18:50:16.317Z,18.11
2018-12-16T18:52:44.166Z,18.09
2018-12-16T18:55:11.805Z,18.10
2018-12-16T18:57:39.398Z,18.10
2018-12-16T19:00:07.036Z,18.11
2018-12-16T19:02:34.520Z,18.09
2018-12-16T19:05:02.185Z,17.78
2018-12-16T19:07:29.670Z,18.09
2018-12-16T19:09:57.287Z,18.12
2018-12-16T19:12:24.938Z,18.15
2018-12-16T19:14:53.463Z,18.17
2018-12-16T19:17:21.142Z,18.19
2018-12-16T19:19:49.579Z,18.17
2018-12-16T19:22:17.520Z,18.20
2018-12-16T19:24:45.109Z,18.21
2018-12-16T19:27:12.908Z,18.19
2018-12-16T19:29:40.715Z,18.20
2018-12-16T19:32:08.364Z,18.21
2018-12-16T19:34:35.945Z,18.20
2018-12-16T19:37:03.543Z,18.20
2018-12-16T19:39:31.748Z,18.19
2018-12-16T19:41:59.457Z,18.21
2018-12-16T19:44:29.158Z,18.18
2018-12-16T19:46:59.311Z,18.19
2018-12-16T19:49:27.799Z,18.19
2018-12-16T19:51:55.445Z,18.20
2018-12-16T19:54:24.846Z,18.20
2018-12-16T19:56:54.648Z,18.19
2018-12-16T19:59:24.269Z,18.20
2018-12-16T20:01:52.026Z,18.17
2018-12-16T20:04:20.825Z,18.16
2018-12-16T20:06:52.583Z,18.14
2018-12-16T20:09:21.577Z,18.14
2018-12-16T20:11:49.103Z,18.15
2018-12-16T20:14:18.708Z,18.14
2018-12-16T20:16:46.416Z,18.11
2018-12-16T20:19:15.068Z,18.08
2018-12-16T20:21:42.693Z,18.05
2018-12-16T20:24:10.269Z,18.06
2018-12-16T20:26:39.808Z,18.06
2018-12-16T20:29:07.329Z,18.06
2018-12-16T20:31:35.162Z,18.09
2018-12-16T20:34:02.699Z,18.11
2018-12-16T20:36:30.362Z,18.11
2018-12-16T20:38:58.014Z,18.16
2018-12-16T20:41:25.621Z,18.02
2018-12-16T20:43:53.195Z,18.18
2018-12-16T20:46:21.130Z,18.17
2018-12-16T20:48:49.012Z,18.18
2018-12-16T20:51:19.054Z,18.18
2018-12-16T20:53:47.682Z,18.19
2018-12-16T20:56:15.253Z,18.19
2018-12-16T20:58:45.308Z,18.17
2018-12-16T21:01:15.252Z,18.17
2018-12-16T21:03:42.872Z,18.16
2018-12-16T21:06:13.630Z,18.16
2018-12-16T21:08:41.316Z,18.15
2018-12-16T21:11:15.607Z,18.17
2018-12-16T21:13:49.458Z,18.17
2018-12-16T21:16:22.591Z,18.15
2018-12-16T21:18:50.124Z,18.16
2018-12-16T21:21:17.743Z,18.13
2018-12-16T21:23:45.339Z,18.15
2018-12-16T21:26:13.160Z,18.15
2018-12-16T21:28:40.902Z,18.15
2018-12-16T21:31:08.550Z,18.13
2018-12-16T21:33:36.143Z,18.13
2018-12-16T21:36:03.747Z,18.14
2018-12-16T21:38:31.493Z,18.13
2018-12-16T21:40:59.042Z,18.13
2018-12-16T21:43:26.521Z,18.14
2018-12-16T21:45:54.293Z,18.13
2018-12-16T21:48:22.946Z,18.13
2018-12-16T21:50:50.457Z,18.14
2018-12-16T21:53:18.179Z,18.10
2018-12-16T21:55:45.773Z,18.12
2018-12-16T21:58:13.361Z,18.12
2018-12-16T22:00:40.950Z,18.14
2018-12-16T22:03:08.590Z,18.17
2018-12-16T22:05:36.491Z,18.18
2018-12-16T22:08:04.060Z,18.19
2018-12-16T22:10:31.752Z,18.19
2018-12-16T22:12:59.446Z,18.20
2018-12-16T22:15:26.965Z,18.20
2018-12-16T22:17:54.628Z,18.19
2018-12-16T22:20:22.099Z,18.19
2018-12-16T22:22:50.220Z,18.19
2018-12-16T22:25:17.723Z,18.16
2018-12-16T22:27:45.174Z,18.16
2018-12-16T22:30:13.027Z,18.16
2018-12-16T22:32:41.231Z,18.16
2018-12-16T22:35:27.561Z,18.17
2018-12-16T22:37:55.535Z,18.17
2018-12-16T22:40:23.245Z,18.20
2018-12-16T22:42:50.975Z,18.20
2018-12-16T22:45:20.019Z,18.17
2018-12-16T22:47:47.552Z,18.18
2018-12-16T22:50:15.044Z,18.20
2018-12-16T22:52:42.673Z,18.15
2018-12-16T22:55:10.130Z,18.16
2018-12-16T22:57:38.135Z,18.13
2018-12-16T23:00:08.352Z,18.15
2018-12-16T23:02:35.964Z,18.12
2018-12-16T23:05:03.646Z,18.11
2018-12-16T23:07:31.097Z,18.09
2018-12-16T23:09:59.677Z,18.06
2018-12-16T23:12:27.167Z,18.07
2018-12-16T23:14:54.619Z,18.07
2018-12-16T23:17:22.059Z,18.06
2018-12-16T23:19:53.757Z,18.06
2018-12-16T23:22:21.439Z,18.08
2018-12-16T23:24:49.295Z,18.10
2018-12-16T23:27:17.939Z,18.09
2018-12-16T23:29:45.397Z,18.11
2018-12-16T23:32:12.970Z,18.11
2018-12-16T23:34:40.459Z,18.10
2018-12-16T23:37:08.045Z,18.09
2018-12-16T23:39:35.739Z,18.10
2018-12-16T23:42:03.271Z,18.09
2018-12-16T23:44:30.716Z,18.08
2018-12-16T23:46:58.194Z,18.07
2018-12-16T23:49:25.672Z,18.11
2018-12-16T23:51:53.151Z,18.10
2018-12-16T23:54:20.652Z,18.10
2018-12-16T23:56:48.312Z,18.09
2018-12-16T23:59:15.838Z,18.09
